Time;durP1;ratioP1;P1;durP2;ratioP2;P2;SDS_P1;SDS_P2;PMS_P1;PMS_P2;Temp;Humidity;BMP_temperature;BMP_pressure;BME280_temperature;BME280_humidity;BME280_pressure;Samples;Min_cycle;Max_cycle;Signal;HPM_P1;HPM_P2
2021/12/06 00:02:12;;;;;;;113.45;15.52;;;2.00;99.90;;;;;;5075675;28;20030;-68
2021/12/06 00:04:39;;;;;;;85.00;15.63;;;2.00;99.90;;;;;;5073785;28;20113;-68
2021/12/06 00:07:14;;;;;;;83.95;15.05;;;1.90;99.90;;;;;;5075568;28;20173;-67
2021/12/06 00:09:42;;;;;;;61.67;14.30;;;1.80;99.90;;;;;;5067839;28;20046;-68
2021/12/06 00:12:09;;;;;;;93.10;14.57;;;1.70;99.90;;;;;;5068165;28;20106;-67
2021/12/06 00:14:38;;;;;;;91.95;13.85;;;1.70;99.90;;;;;;5071995;28;20105;-69
2021/12/06 00:17:11;;;;;;;63.13;13.75;;;1.70;99.90;;;;;;5075762;28;20050;-68
2021/12/06 00:19:39;;;;;;;37.70;13.38;;;1.60;99.90;;;;;;5071224;28;20058;-68
2021/12/06 00:22:10;;;;;;;44.53;13.77;;;1.60;99.90;;;;;;5075887;28;20071;-68
2021/12/06 00:24:36;;;;;;;44.03;13.97;;;1.60;99.90;;;;;;5075916;28;20087;-68
2021/12/06 00:27:02;;;;;;;30.00;11.63;;;1.60;99.90;;;;;;5071934;28;20025;-66
2021/12/06 00:29:28;;;;;;;35.33;10.38;;;1.60;99.90;;;;;;5074335;28;20497;-66
2021/12/06 00:31:55;;;;;;;48.53;10.23;;;1.60;99.90;;;;;;5074088;28;20021;-68
2021/12/06 00:34:22;;;;;;;41.45;9.68;;;1.50;99.90;;;;;;5075554;28;20029;-67
2021/12/06 00:37:05;;;;;;;23.75;8.98;;;1.50;99.90;;;;;;5075539;28;20473;-68
2021/12/06 00:39:31;;;;;;;27.98;9.15;;;1.50;99.90;;;;;;5067683;28;20050;-68
2021/12/06 00:41:56;;;;;;;43.35;9.48;;;1.50;99.90;;;;;;5075697;28;20022;-68
2021/12/06 00:44:22;;;;;;;25.00;8.85;;;1.50;99.90;;;;;;5072533;28;20030;-68
2021/12/06 00:46:48;;;;;;;21.17;8.88;;;1.50;99.90;;;;;;5050017;28;20465;-68
2021/12/06 00:49:14;;;;;;;26.88;10.13;;;1.60;99.90;;;;;;5075041;28;20481;-68
2021/12/06 00:51:40;;;;;;;28.67;10.00;;;1.60;99.90;;;;;;5075836;28;20033;-68
2021/12/06 00:54:09;;;;;;;30.88;9.60;;;1.60;99.90;;;;;;5071089;28;20486;-68
2021/12/06 00:56:36;;;;;;;34.40;9.20;;;1.60;99.90;;;;;;5075984;28;20034;-66
2021/12/06 00:59:02;;;;;;;31.75;9.07;;;1.60;99.90;;;;;;5075212;28;20030;-68
2021/12/06 01:01:28;;;;;;;26.92;8.30;;;1.60;99.90;;;;;;5075796;28;20573;-68
2021/12/06 01:03:54;;;;;;;19.33;8.90;;;1.50;99.90;;;;;;5071192;28;20079;-67
2021/12/06 01:06:19;;;;;;;36.25;9.30;;;1.50;99.90;;;;;;5064723;28;20030;-68
2021/12/06 01:08:45;;;;;;;26.83;8.82;;;1.50;99.90;;;;;;5075100;28;20052;-67
2021/12/06 01:11:11;;;;;;;26.58;8.70;;;1.50;99.90;;;;;;5075498;28;20614;-68
2021/12/06 01:13:38;;;;;;;22.02;8.35;;;1.40;99.90;;;;;;5076566;28;20425;-68
2021/12/06 01:16:06;;;;;;;18.17;8.13;;;1.40;99.90;;;;;;5079770;28;20021;-68
2021/12/06 01:18:32;;;;;;;27.27;9.25;;;1.40;99.90;;;;;;5079555;28;20375;-68
2021/12/06 01:21:11;;;;;;;26.63;8.73;;;1.40;99.90;;;;;;5009434;28;20037;-68
2021/12/06 01:23:48;;;;;;;25.17;9.23;;;1.30;99.90;;;;;;5069107;28;20111;-68
2021/12/06 01:29:10;;;;;;;18.60;8.18;;;1.30;99.90;;;;;;5002688;28;20042;-68
2021/12/06 01:39:18;;;;;;;18.02;8.07;;;1.40;99.90;;;;;;5011107;28;20435;-67
2021/12/06 01:41:49;;;;;;;25.25;8.98;;;1.40;99.90;;;;;;5079644;28;20030;-68
2021/12/06 01:44:25;;;;;;;23.13;9.07;;;1.40;99.90;;;;;;5077838;28;20079;-68
2021/12/06 01:46:54;;;;;;;20.15;8.07;;;1.40;99.90;;;;;;5079729;28;20033;-67
2021/12/06 01:49:23;;;;;;;20.80;8.85;;;1.30;99.90;;;;;;5069461;28;20401;-68
2021/12/06 01:51:51;;;;;;;16.63;7.70;;;1.30;99.90;;;;;;5067890;28;20461;-68
2021/12/06 01:54:18;;;;;;;19.85;8.25;;;1.20;99.90;;;;;;5079032;28;20022;-68
2021/12/06 01:56:44;;;;;;;17.83;8.57;;;1.20;99.90;;;;;;5075223;28;20058;-68
2021/12/06 01:59:11;;;;;;;16.25;7.95;;;1.20;99.90;;;;;;5075125;28;20022;-68
2021/12/06 02:01:37;;;;;;;19.25;8.35;;;1.20;99.90;;;;;;5076037;28;20055;-67
2021/12/06 02:04:03;;;;;;;18.70;8.68;;;1.20;99.90;;;;;;5068102;28;20034;-68
2021/12/06 02:06:34;;;;;;;19.38;9.07;;;1.20;99.90;;;;;;5076013;28;20032;-68
2021/12/06 02:09:01;;;;;;;24.42;9.00;;;1.20;99.90;;;;;;5066742;28;20021;-68
2021/12/06 02:11:30;;;;;;;24.40;9.88;;;1.20;99.90;;;;;;5078658;28;20038;-68
2021/12/06 02:14:06;;;;;;;25.60;9.65;;;1.10;99.90;;;;;;5078855;28;20045;-68
2021/12/06 02:16:42;;;;;;;19.83;9.52;;;1.20;99.90;;;;;;5078504;28;20034;-68
2021/12/06 02:19:08;;;;;;;22.67;9.65;;;1.20;99.90;;;;;;5077292;28;20102;-67
2021/12/06 02:21:40;;;;;;;19.05;9.63;;;1.20;99.90;;;;;;5034617;28;20101;-68
2021/12/06 02:24:09;;;;;;;22.65;9.88;;;1.20;99.90;;;;;;5078106;28;20566;-67
2021/12/06 02:26:37;;;;;;;22.88;9.50;;;1.20;99.90;;;;;;5076938;28;20118;-68
2021/12/06 02:29:08;;;;;;;24.27;9.88;;;1.20;99.90;;;;;;5073899;28;20493;-66
2021/12/06 02:31:34;;;;;;;29.48;10.65;;;1.30;99.90;;;;;;5078358;28;20115;-68
2021/12/06 02:34:00;;;;;;;24.20;10.60;;;1.30;99.90;;;;;;5078286;28;20095;-69
2021/12/06 02:36:26;;;;;;;23.23;10.88;;;1.20;99.90;;;;;;5078460;28;20542;-68
2021/12/06 02:38:53;;;;;;;20.67;9.27;;;1.20;99.90;;;;;;5077485;28;20129;-68
2021/12/06 02:41:19;;;;;;;25.15;10.07;;;1.20;99.90;;;;;;5078005;28;20474;-68
2021/12/06 02:43:46;;;;;;;26.77;10.20;;;1.20;99.90;;;;;;5071131;28;20053;-68
2021/12/06 02:46:12;;;;;;;28.17;10.68;;;1.20;99.90;;;;;;5073815;28;20105;-68
2021/12/06 02:48:38;;;;;;;25.73;10.77;;;1.20;99.90;;;;;;5077487;28;20508;-67
2021/12/06 02:51:06;;;;;;;27.98;11.30;;;1.20;99.90;;;;;;5077886;28;20037;-68
2021/12/06 02:53:34;;;;;;;29.83;11.10;;;1.30;99.90;;;;;;5077839;28;20050;-68
2021/12/06 02:56:05;;;;;;;29.20;12.18;;;1.30;99.90;;;;;;5078321;28;20030;-68
2021/12/06 03:01:08;;;;;;;28.35;11.23;;;1.40;99.90;;;;;;4993321;28;20015;-68
2021/12/06 03:03:34;;;;;;;29.70;11.18;;;1.40;99.90;;;;;;5072623;28;20030;-68
2021/12/06 03:06:00;;;;;;;30.83;12.18;;;1.50;99.90;;;;;;5072225;28;20022;-68
2021/12/06 03:08:41;;;;;;;32.25;11.65;;;1.50;99.90;;;;;;5076558;28;20030;-68
2021/12/06 03:11:11;;;;;;;32.13;12.27;;;1.40;99.90;;;;;;5073806;28;20071;-67
2021/12/06 03:13:37;;;;;;;30.17;11.63;;;1.40;99.90;;;;;;5073545;28;20076;-66
2021/12/06 03:16:04;;;;;;;31.15;12.05;;;1.40;99.90;;;;;;5077735;28;20496;-67
2021/12/06 03:18:30;;;;;;;31.10;12.32;;;1.40;99.90;;;;;;5076547;28;20026;-68
2021/12/06 03:20:56;;;;;;;37.80;12.40;;;1.40;99.90;;;;;;5080765;28;20063;-68
2021/12/06 03:23:21;;;;;;;34.28;12.85;;;1.40;99.90;;;;;;5065613;28;20118;-67
2021/12/06 03:25:47;;;;;;;28.35;11.23;;;1.40;99.90;;;;;;5077143;28;20030;-67
2021/12/06 03:28:13;;;;;;;32.33;11.90;;;1.40;99.90;;;;;;5076056;28;20156;-68
2021/12/06 03:30:39;;;;;;;34.88;11.98;;;1.40;99.90;;;;;;5073021;28;20030;-66
2021/12/06 03:33:05;;;;;;;42.90;12.60;;;1.40;99.90;;;;;;5077397;28;20030;-68
2021/12/06 03:35:30;;;;;;;37.35;11.95;;;1.40;99.90;;;;;;5009708;28;20105;-68
2021/12/06 03:37:56;;;;;;;42.90;12.50;;;1.40;99.90;;;;;;5075661;28;20057;-68
2021/12/06 03:40:22;;;;;;;32.67;11.70;;;1.40;99.90;;;;;;5077413;28;20030;-68
2021/12/06 03:42:48;;;;;;;28.30;11.68;;;1.40;99.90;;;;;;5077459;28;20436;-67
2021/12/06 03:45:14;;;;;;;29.73;11.43;;;1.40;99.90;;;;;;5068345;28;20099;-67
2021/12/06 03:47:41;;;;;;;36.22;11.68;;;1.40;99.90;;;;;;5074534;28;20030;-68
2021/12/06 03:50:08;;;;;;;29.88;11.45;;;1.40;99.90;;;;;;5076848;28;20088;-68
2021/12/06 03:52:35;;;;;;;32.08;12.27;;;1.40;99.90;;;;;;5076879;28;20346;-68
2021/12/06 03:55:03;;;;;;;31.55;12.10;;;1.50;99.90;;;;;;5076460;28;20026;-68
2021/12/06 03:57:28;;;;;;;37.13;12.10;;;1.50;99.90;;;;;;5076339;28;20026;-67
2021/12/06 03:59:54;;;;;;;41.45;12.15;;;1.50;99.90;;;;;;5074757;28;20067;-68
2021/12/06 04:02:25;;;;;;;36.97;12.82;;;1.50;99.90;;;;;;5076909;28;20109;-67
2021/12/06 04:04:51;;;;;;;37.22;12.18;;;1.50;99.90;;;;;;5068392;28;20449;-67
2021/12/06 04:07:17;;;;;;;34.30;12.35;;;1.50;99.90;;;;;;5075137;28;20042;-68
2021/12/06 04:09:43;;;;;;;44.88;12.05;;;1.50;99.90;;;;;;5075257;28;20501;-68
2021/12/06 04:12:11;;;;;;;40.17;11.70;;;1.40;99.90;;;;;;5063991;28;20022;-67
2021/12/06 04:20:27;;;;;;;36.47;12.07;;;1.40;99.90;;;;;;5005125;28;20503;-70
2021/12/06 04:22:54;;;;;;;34.30;12.40;;;1.40;99.90;;;;;;5078775;28;20034;-70
2021/12/06 04:25:20;;;;;;;33.28;12.13;;;1.40;99.90;;;;;;5075854;28;20034;-70
2021/12/06 04:27:55;;;;;;;32.45;11.27;;;1.40;99.90;;;;;;5075121;28;20086;-70
2021/12/06 04:30:24;;;;;;;34.22;11.15;;;1.40;99.90;;;;;;5075700;28;20034;-70
2021/12/06 04:32:52;;;;;;;30.27;11.25;;;1.40;99.90;;;;;;5075898;28;20095;-70
2021/12/06 04:35:18;;;;;;;34.15;12.35;;;1.50;99.90;;;;;;5075177;28;20041;-70
2021/12/06 04:37:44;;;;;;;37.78;12.40;;;1.50;99.90;;;;;;5074972;28;20394;-70
2021/12/06 04:40:11;;;;;;;31.45;11.60;;;1.50;99.90;;;;;;5075559;28;20022;-70
2021/12/06 04:42:38;;;;;;;32.92;12.63;;;1.50;99.90;;;;;;5075660;28;20026;-70
2021/12/06 04:45:04;;;;;;;34.83;12.15;;;1.50;99.90;;;;;;5075008;28;20029;-70
2021/12/06 04:47:30;;;;;;;37.28;12.25;;;1.50;99.90;;;;;;5074686;28;20468;-70
2021/12/06 04:49:56;;;;;;;41.10;13.45;;;1.50;99.90;;;;;;5074353;28;20045;-70
2021/12/06 04:52:23;;;;;;;41.40;12.75;;;1.50;99.90;;;;;;5075176;28;20151;-70
2021/12/06 04:54:53;;;;;;;38.03;13.00;;;1.40;99.90;;;;;;5075389;28;20030;-70
2021/12/06 04:57:32;;;;;;;41.65;13.25;;;1.40;99.90;;;;;;5074373;28;20042;-70
2021/12/06 05:00:09;;;;;;;39.97;13.20;;;1.40;99.90;;;;;;5075092;28;20032;-70
2021/12/06 05:02:37;;;;;;;32.85;11.75;;;1.40;99.90;;;;;;5075193;28;20029;-70
2021/12/06 05:05:17;;;;;;;39.22;12.13;;;1.50;99.90;;;;;;5075269;28;20026;-70
2021/12/06 05:07:48;;;;;;;35.08;11.85;;;1.40;99.90;;;;;;5071375;28;20453;-70
2021/12/06 05:10:15;;;;;;;28.55;11.10;;;1.40;99.90;;;;;;5075000;28;20034;-70
2021/12/06 05:12:42;;;;;;;27.50;11.23;;;1.50;99.90;;;;;;5075099;28;20034;-70
2021/12/06 05:15:08;;;;;;;27.52;10.85;;;1.50;99.90;;;;;;5075114;28;20022;-70
2021/12/06 05:17:35;;;;;;;30.77;11.98;;;1.50;99.90;;;;;;5074374;28;20418;-69
2021/12/06 05:20:01;;;;;;;34.40;12.35;;;1.50;99.90;;;;;;5074159;28;20045;-70
2021/12/06 05:22:27;;;;;;;39.03;12.43;;;1.50;99.90;;;;;;5075267;28;20029;-70
2021/12/06 05:24:53;;;;;;;30.15;12.35;;;1.60;99.90;;;;;;5074919;28;20111;-70
2021/12/06 05:27:26;;;;;;;40.25;12.73;;;1.60;99.90;;;;;;5074409;28;20410;-70
2021/12/06 05:29:56;;;;;;;;;;;1.60;99.90;;;;;;5075057;28;20045;-70
2021/12/06 05:32:25;;;;;;;31.35;11.90;;;1.60;99.90;;;;;;5064626;28;19958;-70
2021/12/06 05:34:57;;;;;;;39.95;13.30;;;1.60;99.90;;;;;;5074625;28;20076;-69
2021/12/06 05:37:23;;;;;;;42.08;13.98;;;1.60;99.90;;;;;;5074669;28;20026;-70
2021/12/06 05:39:49;;;;;;;40.65;13.27;;;1.60;99.90;;;;;;5074758;28;20038;-70
2021/12/06 05:42:15;;;;;;;41.03;13.63;;;1.60;99.90;;;;;;5075284;28;20052;-69
2021/12/06 05:44:41;;;;;;;42.67;14.65;;;1.60;99.90;;;;;;5074863;28;20096;-69
2021/12/06 05:47:07;;;;;;;37.17;13.77;;;1.60;99.90;;;;;;5073888;28;20034;-70
2021/12/06 05:49:33;;;;;;;35.63;12.63;;;1.60;99.90;;;;;;5074497;28;20026;-70
2021/12/06 05:51:58;;;;;;;35.20;13.10;;;1.60;99.90;;;;;;5074304;28;20413;-70
2021/12/06 05:54:25;;;;;;;33.83;12.68;;;1.60;99.90;;;;;;5075587;28;20117;-70
2021/12/06 05:56:52;;;;;;;33.28;12.23;;;1.60;99.90;;;;;;5074509;28;20505;-70
2021/12/06 05:59:18;;;;;;;34.50;12.98;;;1.60;99.90;;;;;;5074444;28;20112;-70
2021/12/06 06:01:48;;;;;;;35.42;12.45;;;1.60;99.90;;;;;;5073911;28;20050;-70
2021/12/06 06:04:13;;;;;;;35.42;13.07;;;1.60;99.90;;;;;;5078439;28;20026;-70
2021/12/06 06:06:39;;;;;;;36.35;12.75;;;1.60;99.90;;;;;;5077785;28;20026;-70
2021/12/06 06:09:06;;;;;;;30.73;11.73;;;1.60;99.90;;;;;;5058178;28;20023;-70
2021/12/06 06:11:36;;;;;;;31.75;10.45;;;1.60;99.90;;;;;;5074789;28;20026;-70
2021/12/06 06:14:04;;;;;;;29.08;10.93;;;1.60;99.90;;;;;;5076489;28;20045;-70
2021/12/06 06:16:33;;;;;;;36.65;11.95;;;1.60;99.90;;;;;;5084839;28;20026;-70
2021/12/06 06:18:59;;;;;;;33.00;11.95;;;1.70;99.90;;;;;;5078688;28;20487;-70
2021/12/06 06:21:25;;;;;;;31.73;12.18;;;1.70;99.90;;;;;;5079763;28;20492;-70
2021/12/06 06:23:51;;;;;;;37.17;13.18;;;1.70;99.90;;;;;;5079248;28;20026;-70
2021/12/06 06:26:17;;;;;;;41.35;12.85;;;1.70;99.90;;;;;;5077916;28;20075;-70
2021/12/06 06:28:43;;;;;;;29.40;11.45;;;1.70;99.90;;;;;;5077320;28;20026;-70
2021/12/06 06:31:08;;;;;;;36.22;12.00;;;1.70;99.90;;;;;;5078651;28;20034;-70
2021/12/06 06:33:34;;;;;;;36.72;12.73;;;1.80;99.90;;;;;;5078726;28;20030;-70
2021/12/06 06:36:00;;;;;;;36.55;12.40;;;1.80;99.90;;;;;;5078874;28;20029;-70
2021/12/06 06:38:26;;;;;;;43.15;12.93;;;1.80;99.90;;;;;;5078220;28;20075;-70
2021/12/06 06:40:52;;;;;;;39.40;13.82;;;1.80;99.90;;;;;;5079364;28;20044;-70
2021/12/06 06:43:18;;;;;;;37.42;14.00;;;1.80;99.90;;;;;;5079650;28;20014;-69
2021/12/06 06:45:45;;;;;;;33.95;12.82;;;1.80;99.90;;;;;;5079447;28;20098;-70
2021/12/06 06:48:11;;;;;;;41.33;14.80;;;1.80;99.90;;;;;;5078143;28;20026;-70
2021/12/06 06:50:37;;;;;;;33.30;12.38;;;1.80;99.90;;;;;;5079001;28;20107;-70
2021/12/06 06:53:03;;;;;;;35.13;12.55;;;1.80;99.90;;;;;;5078583;28;20025;-70
2021/12/06 06:55:29;;;;;;;34.00;13.35;;;1.80;99.90;;;;;;5079311;28;20485;-71
2021/12/06 06:57:54;;;;;;;35.35;13.90;;;1.80;99.90;;;;;;5078258;28;20390;-71
2021/12/06 07:00:24;;;;;;;39.92;14.50;;;1.80;99.90;;;;;;5078423;28;20178;-68
2021/12/06 07:02:50;;;;;;;40.53;15.70;;;1.70;99.90;;;;;;5078948;28;20481;-68
2021/12/06 07:05:17;;;;;;;42.50;15.13;;;1.70;99.90;;;;;;5079296;28;20036;-68
2021/12/06 07:07:42;;;;;;;38.22;14.48;;;1.80;99.90;;;;;;5078692;28;20395;-68
2021/12/06 07:10:09;;;;;;;42.08;14.82;;;1.70;99.90;;;;;;5072789;28;20026;-69
2021/12/06 07:12:42;;;;;;;37.95;15.50;;;1.80;99.90;;;;;;5078397;28;20022;-68
2021/12/06 07:15:11;;;;;;;34.20;13.13;;;1.70;99.90;;;;;;5079204;28;20030;-68
2021/12/06 07:17:41;;;;;;;38.05;14.30;;;1.70;99.90;;;;;;5073646;28;20518;-68
2021/12/06 07:20:08;;;;;;;39.83;14.70;;;1.80;99.90;;;;;;5074263;28;20054;-68
2021/12/06 07:22:34;;;;;;;39.28;13.60;;;1.80;99.90;;;;;;5078569;28;20029;-68
2021/12/06 07:25:01;;;;;;;34.53;14.45;;;1.80;99.90;;;;;;5078530;28;20083;-68
2021/12/06 07:27:26;;;;;;;34.67;14.00;;;1.80;99.90;;;;;;5078069;28;20539;-68
2021/12/06 07:29:52;;;;;;;39.80;15.20;;;1.80;99.90;;;;;;5078171;28;20030;-69
2021/12/06 07:32:18;;;;;;;37.83;14.23;;;1.80;99.90;;;;;;5051598;28;20022;-69
2021/12/06 07:34:43;;;;;;;35.38;14.90;;;1.80;99.90;;;;;;5079004;28;20417;-69
2021/12/06 07:37:09;;;;;;;34.88;14.40;;;1.80;99.90;;;;;;5077470;28;20128;-69
2021/12/06 07:39:35;;;;;;;39.65;16.05;;;1.80;99.90;;;;;;5075977;28;20030;-68
2021/12/06 07:42:01;;;;;;;54.25;17.08;;;1.80;99.90;;;;;;5078590;28;20029;-69
2021/12/06 07:44:26;;;;;;;97.50;17.10;;;1.80;99.90;;;;;;4999050;28;20132;-69
2021/12/06 07:46:52;;;;;;;56.50;15.80;;;1.80;99.90;;;;;;5077675;28;20055;-69
2021/12/06 07:49:22;;;;;;;78.38;17.73;;;1.70;99.90;;;;;;5077609;28;20494;-69
2021/12/06 07:51:49;;;;;;;165.85;15.85;;;1.80;99.90;;;;;;5081439;28;20032;-69
2021/12/06 07:54:14;;;;;;;144.75;16.55;;;1.70;99.90;;;;;;5010900;28;20382;-68
2021/12/06 07:56:42;;;;;;;83.85;15.93;;;1.80;99.90;;;;;;5078059;28;20018;-68
2021/12/06 07:59:07;;;;;;;95.88;16.15;;;1.70;99.90;;;;;;5076542;28;20034;-68
2021/12/06 08:01:33;;;;;;;51.20;17.20;;;1.70;99.90;;;;;;5077436;28;20022;-68
2021/12/06 08:04:00;;;;;;;72.05;13.90;;;1.70;99.90;;;;;;5076367;28;20504;-68
2021/12/06 08:06:27;;;;;;;61.72;19.38;;;1.80;99.90;;;;;;5076428;28;20094;-68
2021/12/06 08:08:53;;;;;;;58.85;15.95;;;1.80;99.90;;;;;;5077032;28;20477;-69
2021/12/06 08:11:21;;;;;;;54.60;14.23;;;1.80;99.90;;;;;;5077065;28;20034;-68
2021/12/06 08:13:51;;;;;;;48.47;14.73;;;1.80;99.90;;;;;;5077535;28;20402;-69
2021/12/06 08:16:23;;;;;;;31.02;13.05;;;1.80;99.90;;;;;;5076924;28;20110;-69
2021/12/06 08:18:48;;;;;;;36.88;15.43;;;1.80;99.90;;;;;;5077653;28;20029;-68
2021/12/06 08:21:17;;;;;;;44.88;18.67;;;1.80;99.90;;;;;;5089343;28;20469;-68
2021/12/06 08:23:43;;;;;;;47.70;15.57;;;1.80;99.90;;;;;;5076328;28;20034;-68
2021/12/06 08:26:10;;;;;;;43.47;14.82;;;1.80;99.90;;;;;;5077192;28;20050;-69
2021/12/06 08:28:37;;;;;;;45.20;16.08;;;1.90;99.90;;;;;;5076243;28;20029;-69
2021/12/06 08:31:05;;;;;;;48.90;15.90;;;1.90;99.90;;;;;;5076825;28;20036;-68
2021/12/06 08:33:31;;;;;;;40.67;15.75;;;1.90;99.90;;;;;;5076581;28;20038;-69
2021/12/06 08:35:58;;;;;;;57.10;16.38;;;1.90;99.90;;;;;;5077080;28;20542;-69
2021/12/06 08:38:27;;;;;;;49.05;14.70;;;2.00;99.90;;;;;;5075930;28;20117;-68
2021/12/06 08:40:54;;;;;;;43.42;16.40;;;2.00;99.90;;;;;;5079503;28;20026;-69
2021/12/06 08:43:21;;;;;;;93.70;15.30;;;2.00;99.90;;;;;;5078911;28;20030;-68
2021/12/06 08:46:02;;;;;;;42.75;16.77;;;2.10;99.90;;;;;;5076367;28;20512;-69
2021/12/06 08:48:32;;;;;;;48.72;19.15;;;2.10;99.90;;;;;;5074940;28;20034;-68
2021/12/06 08:51:02;;;;;;;46.10;16.67;;;2.10;99.90;;;;;;5076660;28;20082;-68
2021/12/06 08:53:28;;;;;;;39.72;16.13;;;2.20;99.90;;;;;;5076314;28;20034;-69
2021/12/06 08:55:55;;;;;;;44.05;15.75;;;2.20;99.90;;;;;;5076577;28;20030;-68
2021/12/06 08:58:20;;;;;;;44.17;16.17;;;2.20;99.90;;;;;;5075522;28;20068;-69
2021/12/06 09:00:46;;;;;;;52.85;16.63;;;2.20;99.90;;;;;;5008951;28;20152;-68
2021/12/06 09:03:12;;;;;;;50.67;16.58;;;2.10;99.90;;;;;;5076198;28;20185;-69
2021/12/06 09:05:41;;;;;;;48.45;17.98;;;2.10;99.90;;;;;;5076396;28;20022;-69
2021/12/06 09:08:08;;;;;;;41.92;16.17;;;2.20;99.90;;;;;;5058824;28;20037;-68
2021/12/06 09:10:34;;;;;;;42.00;15.80;;;2.20;99.90;;;;;;5076655;28;20029;-68
2021/12/06 09:13:01;;;;;;;47.72;16.50;;;2.20;99.90;;;;;;5076263;28;20037;-69
2021/12/06 09:15:27;;;;;;;47.00;17.52;;;2.20;99.90;;;;;;5072190;28;20090;-69
2021/12/06 09:17:55;;;;;;;46.28;16.90;;;2.20;99.90;;;;;;5075400;28;20033;-68
2021/12/06 09:20:24;;;;;;;39.30;16.88;;;2.30;99.90;;;;;;5081879;28;20021;-69
2021/12/06 09:22:50;;;;;;;48.85;17.20;;;2.20;99.90;;;;;;5078537;28;20038;-72
2021/12/06 09:25:16;;;;;;;40.95;16.13;;;2.20;99.90;;;;;;5076117;28;20026;-70
2021/12/06 09:27:44;;;;;;;42.60;17.38;;;2.20;99.90;;;;;;5075778;28;20030;-70
2021/12/06 09:30:12;;;;;;;47.85;18.10;;;2.20;99.90;;;;;;5075885;28;20034;-70
2021/12/06 09:32:39;;;;;;;35.38;15.38;;;2.30;99.90;;;;;;5076028;28;20030;-70
2021/12/06 09:35:05;;;;;;;42.92;17.55;;;2.20;99.90;;;;;;5077573;28;20038;-70
2021/12/06 09:37:32;;;;;;;39.40;17.33;;;2.30;99.90;;;;;;5079426;28;20030;-70
2021/12/06 09:39:58;;;;;;;50.75;20.95;;;2.30;99.90;;;;;;5079747;28;20026;-71
2021/12/06 09:42:25;;;;;;;42.22;19.25;;;2.30;99.90;;;;;;5079744;28;20030;-71
2021/12/06 09:44:51;;;;;;;35.30;14.80;;;2.30;99.90;;;;;;5079706;28;20022;-71
2021/12/06 09:47:17;;;;;;;57.92;27.00;;;2.40;99.90;;;;;;5078516;28;20538;-70
2021/12/06 09:49:42;;;;;;;46.40;20.02;;;2.40;99.90;;;;;;5077251;28;20029;-71
2021/12/06 09:52:09;;;;;;;37.03;16.05;;;2.40;99.90;;;;;;5067229;28;20064;-70
2021/12/06 09:54:37;;;;;;;35.30;17.08;;;2.40;99.90;;;;;;5079736;28;20030;-71
2021/12/06 09:57:06;;;;;;;33.53;16.20;;;2.30;99.90;;;;;;5079252;28;20036;-70
2021/12/06 09:59:33;;;;;;;35.67;16.33;;;2.40;99.90;;;;;;5079358;28;20044;-72
2021/12/06 10:02:08;;;;;;;34.72;15.10;;;2.40;99.90;;;;;;5079348;28;20029;-71
2021/12/06 10:04:38;;;;;;;33.42;15.00;;;2.40;99.90;;;;;;5080178;28;20682;-71
2021/12/06 10:07:07;;;;;;;32.83;15.57;;;2.40;99.90;;;;;;5078943;28;20504;-71
2021/12/06 10:09:36;;;;;;;34.15;16.42;;;2.40;99.90;;;;;;5078874;28;20026;-71
2021/12/06 10:12:02;;;;;;;45.58;17.65;;;2.50;99.90;;;;;;5079239;28;20010;-71
2021/12/06 10:14:28;;;;;;;35.97;15.70;;;2.50;99.90;;;;;;5079494;28;20026;-70
2021/12/06 10:16:54;;;;;;;36.10;16.23;;;2.50;99.90;;;;;;5078933;28;20036;-71
2021/12/06 10:19:21;;;;;;;37.25;16.40;;;2.50;99.90;;;;;;5078753;28;20117;-70
2021/12/06 10:21:48;;;;;;;33.00;15.57;;;2.50;99.90;;;;;;5079042;28;20188;-71
2021/12/06 10:24:18;;;;;;;33.97;15.77;;;2.50;99.90;;;;;;5078899;28;20029;-71
2021/12/06 10:26:45;;;;;;;37.83;15.95;;;2.50;99.90;;;;;;5093450;22;20103;-66
2021/12/06 10:29:20;;;;;;;30.70;14.80;;;2.60;99.90;;;;;;5070617;28;20033;-66
2021/12/06 10:31:47;;;;;;;27.35;14.32;;;2.60;99.90;;;;;;5069914;28;20465;-66
2021/12/06 10:34:24;;;;;;;25.40;13.20;;;2.60;99.90;;;;;;5055734;28;20088;-67
2021/12/06 10:36:51;;;;;;;25.98;13.90;;;2.70;99.90;;;;;;5021172;28;20027;-67
2021/12/06 10:39:17;;;;;;;27.85;13.70;;;2.70;99.90;;;;;;5055009;28;20504;-66
2021/12/06 10:41:47;;;;;;;28.38;14.18;;;2.70;99.90;;;;;;5049209;28;20031;-66
2021/12/06 10:44:14;;;;;;;31.20;14.00;;;2.70;99.90;;;;;;5056443;28;20139;-66
2021/12/06 10:46:43;;;;;;;32.03;13.57;;;2.70;99.90;;;;;;5078001;28;20113;-66
2021/12/06 10:49:12;;;;;;;29.67;14.05;;;2.70;99.90;;;;;;5065937;28;20083;-66
2021/12/06 10:51:38;;;;;;;26.58;13.45;;;2.80;99.90;;;;;;5050979;28;20026;-65
2021/12/06 10:54:13;;;;;;;28.70;14.98;;;2.80;99.90;;;;;;4991199;28;20037;-66
2021/12/06 10:56:44;;;;;;;27.98;13.98;;;2.80;99.90;;;;;;5058753;28;20023;-66
2021/12/06 10:59:23;;;;;;;23.55;13.48;;;2.80;99.90;;;;;;5066683;28;20088;-66
2021/12/06 11:01:53;;;;;;;25.77;13.05;;;2.90;99.90;;;;;;4991849;28;20029;-66
2021/12/06 11:04:21;;;;;;;24.45;12.65;;;2.90;99.90;;;;;;5059081;28;20113;-65
2021/12/06 11:06:50;;;;;;;24.92;12.57;;;2.90;99.90;;;;;;5058531;28;20026;-65
2021/12/06 11:09:23;;;;;;;22.85;11.55;;;3.00;99.90;;;;;;5057625;28;20034;-68
2021/12/06 11:11:53;;;;;;;20.23;10.63;;;3.00;99.90;;;;;;5058741;28;20083;-66
2021/12/06 11:14:26;;;;;;;22.15;11.30;;;3.10;99.90;;;;;;5052786;28;20066;-67
2021/12/06 11:16:56;;;;;;;23.42;12.40;;;3.10;99.90;;;;;;5056836;28;20034;-66
2021/12/06 11:19:24;;;;;;;24.83;12.48;;;3.10;99.90;;;;;;5057544;28;20053;-66
2021/12/06 11:21:52;;;;;;;28.13;15.63;;;3.10;99.90;;;;;;5058234;28;20557;-66
2021/12/06 11:24:24;;;;;;;23.25;11.85;;;3.10;99.90;;;;;;5058234;28;20077;-66
2021/12/06 11:27:10;;;;;;;23.52;13.20;;;3.10;99.90;;;;;;4990574;28;20035;-66
2021/12/06 11:29:49;;;;;;;25.38;13.65;;;3.10;99.90;;;;;;5046305;28;20402;-67
2021/12/06 11:32:20;;;;;;;24.15;13.75;;;3.10;99.90;;;;;;5038195;28;20027;-67
2021/12/06 11:34:55;;;;;;;29.63;14.47;;;3.10;99.90;;;;;;5056844;28;20110;-66
2021/12/06 11:37:34;;;;;;;24.10;12.55;;;3.20;99.90;;;;;;5057505;28;20034;-66
2021/12/06 11:40:20;;;;;;;25.38;14.05;;;3.20;99.90;;;;;;5051833;28;20021;-67
2021/12/06 11:43:03;;;;;;;22.70;12.13;;;3.20;99.90;;;;;;5057810;28;20114;-67
2021/12/06 11:45:48;;;;;;;20.10;10.43;;;3.20;99.90;;;;;;5057952;28;20037;-67
2021/12/06 11:48:19;;;;;;;18.52;11.13;;;3.20;99.90;;;;;;5073787;28;20032;-64
2021/12/06 11:50:50;;;;;;;21.55;11.20;;;3.30;99.90;;;;;;5071336;28;20031;-63
2021/12/06 11:53:25;;;;;;;15.80;9.50;;;3.30;99.90;;;;;;5014920;28;20452;-63
2021/12/06 11:56:10;;;;;;;15.50;9.05;;;3.30;99.90;;;;;;5057641;28;20456;-65
2021/12/06 11:58:46;;;;;;;14.02;8.50;;;3.40;99.90;;;;;;5054672;28;20031;-66
2021/12/06 12:01:18;;;;;;;12.40;7.97;;;3.30;99.90;;;;;;5055130;28;20027;-65
2021/12/06 12:03:49;;;;;;;11.70;7.27;;;3.30;99.90;;;;;;5057995;28;20435;-67
2021/12/06 12:06:27;;;;;;;11.50;7.20;;;3.30;99.90;;;;;;5070488;28;20301;-68
2021/12/06 12:09:01;;;;;;;15.57;7.85;;;3.30;99.90;;;;;;5070501;28;20079;-64
2021/12/06 12:11:27;;;;;;;14.27;8.68;;;3.20;99.90;;;;;;5057072;28;20027;-67
2021/12/06 12:13:56;;;;;;;31.80;17.48;;;3.20;99.90;;;;;;5043802;28;20030;-66
2021/12/06 12:16:22;;;;;;;34.42;16.23;;;3.20;99.90;;;;;;4984404;28;20109;-66
2021/12/06 12:18:48;;;;;;;34.25;18.23;;;3.20;99.90;;;;;;5063501;28;20477;-67
2021/12/06 12:21:15;;;;;;;22.65;12.45;;;3.20;99.90;;;;;;4986281;28;20026;-66
2021/12/06 12:23:42;;;;;;;18.48;9.88;;;3.10;99.90;;;;;;5056210;28;20029;-65
2021/12/06 12:26:13;;;;;;;14.02;7.60;;;3.10;99.90;;;;;;5056462;28;20026;-67
2021/12/06 12:29:01;;;;;;;16.17;8.13;;;3.10;99.90;;;;;;4987627;28;20053;-66
2021/12/06 12:31:30;;;;;;;12.05;8.02;;;3.10;99.90;;;;;;5055824;28;20466;-65
2021/12/06 12:33:56;;;;;;;13.75;8.65;;;3.10;99.90;;;;;;4986514;28;20026;-67
2021/12/06 12:36:24;;;;;;;12.70;7.68;;;3.10;99.90;;;;;;5050812;28;20383;-67
2021/12/06 12:38:54;;;;;;;13.50;7.25;;;3.10;99.90;;;;;;5069449;28;20028;-65
2021/12/06 12:41:22;;;;;;;10.68;6.50;;;3.10;99.90;;;;;;5058465;28;20053;-66
2021/12/06 12:43:51;;;;;;;11.05;6.95;;;3.10;99.90;;;;;;5052367;28;20054;-67
2021/12/06 12:46:30;;;;;;;12.98;6.80;;;3.10;99.90;;;;;;5002347;28;20050;-67
2021/12/06 12:48:59;;;;;;;10.95;6.57;;;3.10;99.90;;;;;;5046017;28;20031;-66
2021/12/06 12:51:31;;;;;;;13.98;7.15;;;3.10;99.90;;;;;;5053469;28;20038;-66
2021/12/06 12:54:07;;;;;;;11.50;7.82;;;3.10;99.90;;;;;;5057740;28;20069;-66
2021/12/06 12:56:41;;;;;;;11.90;7.47;;;3.10;99.90;;;;;;5056959;28;20049;-66
2021/12/06 12:59:26;;;;;;;11.55;7.40;;;3.20;99.90;;;;;;5054257;28;20041;-66
2021/12/06 13:02:19;;;;;;;14.27;8.60;;;3.10;99.90;;;;;;5086597;28;20077;-66
2021/12/06 13:04:57;;;;;;;15.63;8.48;;;3.10;99.90;;;;;;5069743;28;20028;-66